Time;durP1;ratioP1;P1;durP2;ratioP2;P2;SDS_P1;SDS_P2;PMS_P1;PMS_P2;Temp;Humidity;BMP_temperature;BMP_pressure;BME280_temperature;BME280_humidity;BME280_pressure;Samples;Min_cycle;Max_cycle;Signal;HPM_P1;HPM_P2
2021/12/15 00:02:04;;;;;;;62.53;39.75;;;4.90;99.90;;;;;;2603847;47;20780;31
2021/12/15 00:04:35;;;;;;;69.88;44.83;;;5.00;99.90;;;;;;2585553;54;20030;31
2021/12/15 00:07:08;;;;;;;67.00;42.05;;;5.00;99.90;;;;;;2603927;47;20883;31
2021/12/15 00:09:42;;;;;;;75.32;46.45;;;5.00;99.90;;;;;;2585263;54;20030;31
2021/12/15 00:12:16;;;;;;;76.60;43.10;;;5.00;99.90;;;;;;2585808;54;20943;31
2021/12/15 00:14:48;;;;;;;81.13;48.03;;;5.00;99.90;;;;;;2585475;54;20119;31
2021/12/15 00:17:24;;;;;;;75.93;47.20;;;5.00;99.90;;;;;;2586179;54;20859;31
2021/12/15 00:19:59;;;;;;;75.20;45.67;;;5.00;99.90;;;;;;2586463;54;20034;31
2021/12/15 00:22:32;;;;;;;80.53;45.80;;;5.00;99.90;;;;;;2586241;54;20104;31
2021/12/15 00:25:04;;;;;;;64.15;40.67;;;5.00;99.90;;;;;;2586385;54;20031;31
2021/12/15 00:27:37;;;;;;;50.65;32.95;;;5.00;99.90;;;;;;2586354;54;20038;31
2021/12/15 00:30:13;;;;;;;67.10;41.75;;;5.10;99.90;;;;;;2586216;54;20048;31
2021/12/15 00:32:50;;;;;;;70.07;40.88;;;5.00;99.90;;;;;;2586245;54;20052;31
2021/12/15 00:35:24;;;;;;;58.40;36.10;;;5.10;99.90;;;;;;2604593;46;20038;31
2021/12/15 00:37:57;;;;;;;55.40;35.33;;;5.10;99.90;;;;;;2586412;54;20904;31
2021/12/15 00:40:30;;;;;;;65.65;38.05;;;5.10;99.90;;;;;;2586562;54;20843;31
2021/12/15 00:43:05;;;;;;;60.80;37.30;;;5.10;99.90;;;;;;2585435;54;20977;31
2021/12/15 00:45:38;;;;;;;65.75;40.80;;;5.10;99.90;;;;;;2585566;54;20800;31
2021/12/15 00:48:15;;;;;;;60.50;35.50;;;5.20;99.90;;;;;;2684284;39;22303;31
2021/12/15 00:50:48;;;;;;;70.63;42.60;;;5.10;99.90;;;;;;2586225;54;20052;31
2021/12/15 00:53:22;;;;;;;75.68;47.05;;;5.10;99.90;;;;;;2585469;54;20022;31
2021/12/15 00:55:54;;;;;;;72.78;44.13;;;5.10;99.90;;;;;;2604794;46;20983;31
2021/12/15 00:58:29;;;;;;;77.72;45.83;;;5.10;99.90;;;;;;2604488;46;20907;31
2021/12/15 01:01:04;;;;;;;71.80;43.65;;;5.10;99.90;;;;;;2586320;54;20942;31
2021/12/15 01:03:39;;;;;;;71.87;43.47;;;5.10;99.90;;;;;;2586358;54;20956;31
2021/12/15 01:06:18;;;;;;;57.65;33.38;;;5.10;99.90;;;;;;2586140;54;20031;31
2021/12/15 01:08:58;;;;;;;66.88;40.88;;;5.10;99.90;;;;;;2586314;54;20050;31
2021/12/15 01:11:50;;;;;;;62.23;36.87;;;5.10;99.90;;;;;;2684227;39;22479;31
2021/12/15 01:20:05;;;;;;;54.70;32.35;;;5.20;99.90;;;;;;2586218;54;20034;31
2021/12/15 01:22:39;;;;;;;65.10;38.85;;;5.20;99.90;;;;;;2604303;46;20870;31
2021/12/15 01:25:14;;;;;;;61.37;38.97;;;5.20;99.90;;;;;;2586297;54;20022;31
2021/12/15 01:27:46;;;;;;;61.05;37.70;;;5.20;99.90;;;;;;2586225;54;20761;31
2021/12/15 01:30:20;;;;;;;62.40;38.25;;;5.20;99.90;;;;;;2585972;54;20027;31
2021/12/15 01:32:52;;;;;;;57.50;35.30;;;5.20;99.90;;;;;;2586137;54;20844;31
2021/12/15 01:35:29;;;;;;;60.10;36.95;;;5.20;99.90;;;;;;2585996;54;20754;31
2021/12/15 01:38:07;;;;;;;;;;;5.20;99.90;;;;;;2586190;54;20120;31
2021/12/15 01:40:40;;;;;;;56.90;34.13;;;5.20;99.90;;;;;;2585959;54;19990;31
2021/12/15 01:43:17;;;;;;;63.78;37.33;;;5.20;99.90;;;;;;2586091;54;21186;31
2021/12/15 01:48:30;;;;;;;55.53;31.50;;;5.20;99.90;;;;;;2586431;54;20680;31
2021/12/15 01:51:07;;;;;;;63.23;35.10;;;5.20;99.90;;;;;;2586216;54;20031;31
2021/12/15 01:53:39;;;;;;;63.30;37.15;;;5.20;99.90;;;;;;2586363;54;20238;31
2021/12/15 01:56:12;;;;;;;66.25;37.25;;;5.30;99.90;;;;;;2586134;54;20163;31
2021/12/15 01:58:48;;;;;;;66.35;37.08;;;5.20;99.90;;;;;;2604553;46;20971;31
2021/12/15 02:01:23;;;;;;;70.70;38.85;;;5.30;99.90;;;;;;2586160;54;20933;31
2021/12/15 02:03:55;;;;;;;75.05;40.00;;;5.20;99.90;;;;;;2586286;54;20877;31
2021/12/15 02:06:45;;;;;;;56.65;34.40;;;5.30;99.90;;;;;;2604390;46;20053;31
2021/12/15 02:09:34;;;;;;;74.50;39.38;;;5.20;99.90;;;;;;2585973;54;20035;31
2021/12/15 02:12:15;;;;;;;56.40;31.27;;;5.30;99.90;;;;;;2586006;54;20976;31
2021/12/15 02:14:51;;;;;;;69.77;37.80;;;5.30;99.90;;;;;;2585992;54;20054;31
2021/12/15 02:17:24;;;;;;;66.17;36.57;;;5.30;99.90;;;;;;2585961;54;20246;31
2021/12/15 02:19:57;;;;;;;77.70;39.10;;;5.30;99.90;;;;;;2585949;54;20034;31
2021/12/15 02:22:33;;;;;;;69.15;37.83;;;5.30;99.90;;;;;;2604629;46;20031;31
2021/12/15 02:25:07;;;;;;;66.70;35.58;;;5.30;99.90;;;;;;2586202;54;20926;31
2021/12/15 02:27:40;;;;;;;72.35;37.35;;;5.30;99.90;;;;;;2586165;54;20053;31
2021/12/15 02:30:29;;;;;;;65.33;35.00;;;5.30;99.90;;;;;;2604270;46;20928;31
2021/12/15 02:33:22;;;;;;;67.75;35.92;;;5.30;99.90;;;;;;2604915;46;20785;31
2021/12/15 02:38:46;;;;;;;71.80;37.72;;;5.30;99.90;;;;;;2585785;54;20919;31
2021/12/15 02:43:48;;;;;;;77.00;37.95;;;5.30;99.90;;;;;;2586177;54;20844;31
2021/12/15 02:46:19;;;;;;;64.63;33.33;;;5.40;99.90;;;;;;2586256;54;21028;31
2021/12/15 02:48:52;;;;;;;76.68;37.95;;;5.40;99.90;;;;;;2585815;54;20031;31
2021/12/15 02:51:27;;;;;;;64.37;33.20;;;5.40;99.90;;;;;;2604139;46;20203;31
2021/12/15 02:54:03;;;;;;;63.90;33.65;;;5.40;99.90;;;;;;2586182;54;20900;31
2021/12/15 02:56:36;;;;;;;73.82;38.08;;;5.40;99.90;;;;;;2585982;54;20030;31
2021/12/15 02:59:09;;;;;;;76.60;36.80;;;5.40;99.90;;;;;;2585969;54;20115;31
2021/12/15 03:01:55;;;;;;;79.80;38.65;;;5.50;99.90;;;;;;2586164;54;20859;31
2021/12/15 03:04:39;;;;;;;92.90;39.05;;;5.50;99.90;;;;;;2586115;54;20030;31
2021/12/15 03:07:16;;;;;;;65.15;33.40;;;5.40;99.90;;;;;;2586018;54;20157;31
2021/12/15 03:18:12;;;;;;;77.32;37.63;;;5.50;99.90;;;;;;2585448;54;20822;31
2021/12/15 03:20:47;;;;;;;91.85;44.22;;;5.50;99.90;;;;;;2586043;54;20927;31
2021/12/15 03:23:23;;;;;;;108.65;45.25;;;5.50;99.90;;;;;;2586060;54;20859;31
2021/12/15 03:25:59;;;;;;;67.10;33.25;;;5.50;99.90;;;;;;2586100;54;20083;31
2021/12/15 03:34:15;;;;;;;84.40;36.25;;;5.60;99.90;;;;;;2604392;47;20034;31
2021/12/15 03:39:46;;;;;;;115.55;38.92;;;5.60;99.90;;;;;;2585477;54;20838;31
2021/12/15 03:42:24;;;;;;;89.57;36.17;;;5.60;99.90;;;;;;2585801;54;20109;31
2021/12/15 03:44:57;;;;;;;105.47;37.33;;;5.60;99.90;;;;;;2585613;54;20037;31
2021/12/15 03:47:35;;;;;;;97.25;36.88;;;5.60;99.90;;;;;;2585752;54;20093;31
2021/12/15 03:50:10;;;;;;;93.80;36.03;;;5.60;99.90;;;;;;2604489;47;21035;31
2021/12/15 04:12:50;;;;;;;88.30;35.83;;;5.60;99.90;;;;;;2635163;54;20302;-79
2021/12/15 04:15:31;;;;;;;82.15;32.38;;;5.90;99.90;;;;;;2636226;46;20080;-79
2021/12/15 04:20:49;;;;;;;111.70;36.13;;;5.90;99.90;;;;;;2636966;38;20640;-80
2021/12/15 04:23:34;;;;;;;119.80;35.40;;;5.80;99.90;;;;;;2636073;38;20609;-79
2021/12/15 04:26:06;;;;;;;104.90;35.22;;;5.90;99.90;;;;;;2634656;54;20010;-80
2021/12/15 04:28:45;;;;;;;105.72;37.08;;;5.80;99.90;;;;;;2634600;54;20026;-79
2021/12/15 04:31:19;;;;;;;89.05;30.98;;;5.80;99.90;;;;;;2634415;46;20030;-78
2021/12/15 04:34:03;;;;;;;119.45;36.53;;;5.80;99.90;;;;;;2634285;38;20503;-79
2021/12/15 04:36:49;;;;;;;195.13;36.55;;;5.80;99.90;;;;;;2634178;54;20066;-79
2021/12/15 04:39:24;;;;;;;121.67;36.33;;;5.80;99.90;;;;;;2633962;54;20030;-80
2021/12/15 04:41:58;;;;;;;91.85;31.50;;;5.80;99.90;;;;;;2633699;54;20497;-80
2021/12/15 04:44:41;;;;;;;190.77;36.78;;;5.90;99.90;;;;;;2634085;54;20077;-79
2021/12/15 04:47:13;;;;;;;98.70;34.30;;;5.90;99.90;;;;;;2634328;54;20036;-81
2021/12/15 04:49:50;;;;;;;157.57;36.53;;;5.80;99.90;;;;;;2634753;54;20007;-80
2021/12/15 04:52:23;;;;;;;101.05;31.88;;;5.80;99.90;;;;;;2634015;54;20026;-80
2021/12/15 04:55:02;;;;;;;99.07;35.97;;;5.90;99.90;;;;;;2633728;54;20578;-78
2021/12/15 04:57:34;;;;;;;167.60;38.25;;;5.80;99.90;;;;;;2634597;54;20010;-79
2021/12/15 05:00:14;;;;;;;108.32;33.85;;;5.80;99.90;;;;;;2634389;54;20022;-80
2021/12/15 05:02:57;;;;;;;126.78;34.25;;;5.90;99.90;;;;;;2640241;38;20436;-80
2021/12/15 05:05:44;;;;;;;296.50;41.58;;;5.90;99.90;;;;;;2634463;54;20028;-80
2021/12/15 05:08:19;;;;;;;103.78;32.30;;;5.90;99.90;;;;;;2634487;38;20393;-80
2021/12/15 05:10:54;;;;;;;117.72;33.92;;;5.90;99.90;;;;;;2635329;38;20526;-79
2021/12/15 05:13:29;;;;;;;152.85;36.20;;;5.90;99.90;;;;;;2629846;54;20269;-80
2021/12/15 05:16:09;;;;;;;76.25;25.25;;;5.90;99.90;;;;;;2629356;54;20030;-80
2021/12/15 05:18:41;;;;;;;106.35;31.23;;;5.80;99.90;;;;;;2629955;46;20034;-79
2021/12/15 05:21:25;;;;;;;122.55;34.78;;;5.90;99.90;;;;;;2628903;54;20042;-79
2021/12/15 05:24:13;;;;;;;105.68;32.88;;;5.90;99.90;;;;;;2629382;54;20081;-80
2021/12/15 05:26:44;;;;;;;112.32;33.88;;;5.90;99.90;;;;;;2629084;54;20037;-80
2021/12/15 05:29:18;;;;;;;374.25;48.20;;;5.90;99.90;;;;;;2629354;54;20029;-79
2021/12/15 05:31:57;;;;;;;165.98;40.00;;;5.90;99.90;;;;;;2629140;54;20053;-79
2021/12/15 05:37:32;;;;;;;321.05;40.72;;;5.90;99.90;;;;;;2629243;54;20031;-80
2021/12/15 05:40:22;;;;;;;118.60;31.25;;;5.90;99.90;;;;;;2628917;54;20026;-80
2021/12/15 05:43:05;;;;;;;128.65;32.42;;;5.90;99.90;;;;;;2629054;54;20106;-80
2021/12/15 05:45:41;;;;;;;174.10;37.03;;;5.90;99.90;;;;;;2628660;54;20034;-79
2021/12/15 05:48:41;;;;;;;152.20;32.75;;;5.90;99.90;;;;;;2629171;54;20038;-80
2021/12/15 05:51:15;;;;;;;95.68;28.23;;;5.90;99.90;;;;;;2630011;46;20037;-80
2021/12/15 05:53:59;;;;;;;101.97;30.17;;;5.90;99.90;;;;;;2628736;54;20111;-79
2021/12/15 05:56:36;;;;;;;121.93;36.13;;;6.00;99.90;;;;;;2628748;54;20031;-78
2021/12/15 05:59:35;;;;;;;112.50;38.50;;;6.00;99.90;;;;;;2629432;54;20117;-80
2021/12/15 06:02:12;;;;;;;120.40;39.95;;;6.00;99.90;;;;;;2629480;46;20042;-79
2021/12/15 06:04:51;;;;;;;172.67;40.20;;;6.00;99.90;;;;;;2628907;54;20584;-79
2021/12/15 06:08:00;;;;;;;106.53;35.78;;;6.00;99.90;;;;;;2628204;54;20158;-77
2021/12/15 08:59:01;;;;;;;66.53;30.20;;;6.70;99.90;;;;;;2621018;54;20053;-80
2021/12/15 09:01:35;;;;;;;70.00;30.00;;;6.80;99.90;;;;;;2630687;54;20034;-78
2021/12/15 09:04:13;;;;;;;69.13;31.30;;;6.80;99.90;;;;;;2629631;54;20040;-77
2021/12/15 09:06:48;;;;;;;69.82;30.40;;;6.80;99.90;;;;;;2630443;46;20031;-79
2021/12/15 09:09:20;;;;;;;71.68;30.10;;;6.80;99.90;;;;;;2627079;54;20053;-79
2021/12/15 09:11:53;;;;;;;63.45;30.17;;;6.90;99.90;;;;;;2629362;46;20042;-78
2021/12/15 09:14:28;;;;;;;64.82;27.98;;;6.90;99.90;;;;;;2629369;54;20030;-76
2021/12/15 09:17:01;;;;;;;62.33;28.75;;;7.00;99.90;;;;;;2629565;54;20094;-77
2021/12/15 09:19:37;;;;;;;58.10;28.80;;;7.00;99.90;;;;;;2630323;39;20436;-79
2021/12/15 09:22:09;;;;;;;;;;;7.10;99.90;;;;;;2629682;54;20031;-79
2021/12/15 09:24:46;;;;;;;57.58;27.00;;;7.10;99.90;;;;;;2629056;54;19950;-78
2021/12/15 09:27:18;;;;;;;58.15;27.45;;;7.10;99.90;;;;;;2629450;54;20018;-77
2021/12/15 09:29:53;;;;;;;49.97;27.58;;;7.10;99.90;;;;;;2630552;54;20017;-77
2021/12/15 09:32:26;;;;;;;38.65;23.15;;;7.20;99.90;;;;;;2630061;54;20011;-77
2021/12/15 09:34:58;;;;;;;43.92;25.00;;;7.20;99.90;;;;;;2630530;54;20018;-77
2021/12/15 09:37:33;;;;;;;49.63;25.52;;;7.20;99.90;;;;;;2630311;54;20528;-78
2021/12/15 09:40:12;;;;;;;37.55;22.50;;;7.20;99.90;;;;;;2631749;31;20549;-78
2021/12/15 09:42:45;;;;;;;40.05;22.65;;;7.30;99.90;;;;;;2630397;54;20030;-78
2021/12/15 09:45:31;;;;;;;39.47;22.38;;;7.30;99.90;;;;;;2629957;54;20031;-79
2021/12/15 09:56:49;;;;;;;;;;;7.50;99.90;;;;;;2630587;54;20098;-77
2021/12/15 10:02:22;;;;;;;30.13;19.52;;;7.50;99.90;;;;;;2629528;54;20031;-79
2021/12/15 10:05:07;;;;;;;32.35;20.17;;;7.50;99.90;;;;;;2629937;39;20420;-76
2021/12/15 10:18:57;;;;;;;28.38;18.80;;;7.50;99.90;;;;;;2628403;54;20041;-79
2021/12/15 10:21:31;;;;;;;31.42;19.33;;;7.50;99.90;;;;;;2627828;54;20034;-77
2021/12/15 10:24:10;;;;;;;32.42;20.75;;;7.50;99.90;;;;;;2627122;54;20094;-79
2021/12/15 10:26:57;;;;;;;31.55;20.60;;;7.50;99.90;;;;;;2628722;39;20625;-78
2021/12/15 10:29:32;;;;;;;29.50;19.63;;;7.60;99.90;;;;;;2627104;54;20034;-76
2021/12/15 10:32:13;;;;;;;29.58;18.42;;;7.50;99.90;;;;;;2629141;46;20067;-78
2021/12/15 10:34:47;;;;;;;24.25;15.27;;;7.60;99.90;;;;;;2632734;39;20413;-78
2021/12/15 10:37:20;;;;;;;28.60;19.45;;;7.60;99.90;;;;;;2628073;54;20035;-79
2021/12/15 10:40:19;;;;;;;23.27;16.50;;;7.60;99.90;;;;;;2628438;54;20030;-79
2021/12/15 10:43:02;;;;;;;27.77;18.20;;;7.70;99.90;;;;;;2628121;47;20026;-77
2021/12/15 10:45:39;;;;;;;26.85;17.45;;;7.70;99.90;;;;;;2627370;54;20076;-79
2021/12/15 10:48:24;;;;;;;29.13;18.08;;;7.70;99.90;;;;;;2634483;31;20462;-77
2021/12/15 10:50:58;;;;;;;29.15;19.33;;;7.70;99.90;;;;;;2627941;54;20035;-76
2021/12/15 10:53:34;;;;;;;27.08;19.10;;;7.70;99.90;;;;;;2628855;54;20030;-78
2021/12/15 10:56:13;;;;;;;;;;;7.70;99.90;;;;;;2628734;54;20038;-80
2021/12/15 10:58:46;;;;;;;27.73;18.27;;;7.70;99.90;;;;;;2629044;54;19945;-78
2021/12/15 11:01:48;;;;;;;24.98;17.05;;;7.70;99.90;;;;;;2628236;54;20090;-78
2021/12/15 11:04:41;;;;;;;24.77;17.30;;;7.70;99.90;;;;;;2628995;54;20504;-79
2021/12/15 11:07:32;;;;;;;31.33;19.95;;;7.80;99.90;;;;;;2629936;39;20456;-77
2021/12/15 11:10:05;;;;;;;37.72;21.42;;;7.80;99.90;;;;;;2628903;54;20030;-79
2021/12/15 11:12:40;;;;;;;24.10;17.60;;;7.80;99.90;;;;;;2628923;54;20026;-78
2021/12/15 11:15:13;;;;;;;22.80;15.75;;;7.90;99.90;;;;;;2628574;54;20038;-78
2021/12/15 11:17:52;;;;;;;28.30;18.95;;;7.90;99.90;;;;;;2628867;46;20105;-77
2021/12/15 11:20:25;;;;;;;28.27;18.88;;;7.90;99.90;;;;;;2628597;54;20030;-76
2021/12/15 11:23:23;;;;;;;28.00;18.90;;;7.90;99.90;;;;;;2627399;54;20061;-79
2021/12/15 11:25:56;;;;;;;25.88;19.15;;;7.90;99.90;;;;;;2627134;54;20078;-78
2021/12/15 11:28:30;;;;;;;31.15;20.45;;;7.90;99.90;;;;;;2627916;39;20714;-78
2021/12/15 11:31:04;;;;;;;31.00;21.33;;;8.00;99.90;;;;;;2626638;54;20544;-78
2021/12/15 11:33:45;;;;;;;27.45;20.58;;;8.00;99.90;;;;;;2627583;54;20042;-79
2021/12/15 11:36:25;;;;;;;27.98;20.42;;;8.00;99.90;;;;;;2628857;54;20027;-78
2021/12/15 11:39:07;;;;;;;28.20;20.27;;;8.00;99.90;;;;;;2631279;39;20457;-78
2021/12/15 11:41:42;;;;;;;26.92;18.58;;;8.00;99.90;;;;;;2629098;54;20042;-79
2021/12/15 11:44:15;;;;;;;26.75;18.15;;;8.00;99.90;;;;;;2630909;54;20023;-78
2021/12/15 11:46:49;;;;;;;26.45;17.75;;;8.00;99.90;;;;;;2630040;54;20063;-79
2021/12/15 11:49:21;;;;;;;25.50;17.92;;;8.00;99.90;;;;;;2630283;54;20026;-79
2021/12/15 11:51:54;;;;;;;26.63;17.25;;;8.10;99.90;;;;;;2630329;39;20464;-80
2021/12/15 11:57:24;;;;;;;25.17;16.95;;;8.10;99.90;;;;;;2629993;54;20034;-80
2021/12/15 11:59:59;;;;;;;24.75;16.58;;;8.10;99.90;;;;;;2629449;54;20027;-77
2021/12/15 12:02:34;;;;;;;23.23;15.93;;;8.10;99.90;;;;;;2629183;54;20030;-79
2021/12/15 12:05:08;;;;;;;24.30;15.57;;;8.10;99.90;;;;;;2629816;54;20025;-79
2021/12/15 12:07:43;;;;;;;23.20;15.25;;;8.10;99.90;;;;;;2626062;47;20605;31
2021/12/15 12:10:22;;;;;;;23.02;15.45;;;8.30;99.90;;;;;;2585980;54;20029;31
2021/12/15 12:13:08;;;;;;;22.77;14.87;;;8.30;99.90;;;;;;2601303;54;20034;31
2021/12/15 12:15:40;;;;;;;24.70;15.87;;;8.30;99.90;;;;;;2585867;54;20185;31
2021/12/15 12:18:13;;;;;;;21.00;14.60;;;8.30;99.90;;;;;;2585510;54;20358;31
2021/12/15 12:20:49;;;;;;;20.67;14.80;;;8.30;99.90;;;;;;2591771;54;21209;31
2021/12/15 12:23:22;;;;;;;23.80;16.13;;;8.30;99.90;;;;;;2590980;54;22359;31
2021/12/15 12:25:56;;;;;;;21.40;15.60;;;8.30;99.90;;;;;;2592963;54;20074;31
2021/12/15 12:28:34;;;;;;;30.50;17.73;;;8.20;99.90;;;;;;2611422;54;20102;31
2021/12/15 12:31:12;;;;;;;20.75;15.05;;;8.20;99.90;;;;;;2599563;54;20018;31
2021/12/15 12:33:46;;;;;;;22.90;15.50;;;8.20;99.90;;;;;;2610505;54;20108;31
2021/12/15 12:36:21;;;;;;;25.85;16.33;;;8.20;99.90;;;;;;2610692;54;20071;31
2021/12/15 12:38:55;;;;;;;25.50;15.95;;;8.20;99.90;;;;;;2594792;46;21296;31
2021/12/15 12:41:30;;;;;;;21.87;15.97;;;8.20;99.90;;;;;;2614199;39;20807;31
2021/12/15 12:44:11;;;;;;;24.63;16.58;;;8.20;99.90;;;;;;2603892;54;20138;31
2021/12/15 12:46:59;;;;;;;24.25;17.00;;;8.20;99.90;;;;;;2595780;54;20719;31
2021/12/15 12:50:00;;;;;;;24.40;15.30;;;8.20;99.90;;;;;;2591821;54;20034;31
2021/12/15 13:00:56;;;;;;;22.00;13.80;;;8.00;99.90;;;;;;2612929;54;20017;31
2021/12/15 13:03:36;;;;;;;23.90;14.60;;;8.00;99.90;;;;;;2602489;54;20275;-77
2021/12/15 13:06:11;;;;;;;29.70;15.82;;;8.00;99.90;;;;;;2608330;54;20430;-76
2021/12/15 13:08:47;;;;;;;26.95;15.40;;;8.00;99.90;;;;;;2611914;54;21284;-77
2021/12/15 13:11:34;;;;;;;24.52;16.08;;;8.00;99.90;;;;;;2601888;54;20101;-73
2021/12/15 13:14:10;;;;;;;23.10;14.80;;;8.00;99.90;;;;;;2593224;39;20957;31
2021/12/15 13:16:51;;;;;;;24.95;15.68;;;7.90;99.90;;;;;;2605419;54;20026;31
2021/12/15 13:19:25;;;;;;;23.40;14.93;;;7.90;99.90;;;;;;2613315;39;20947;31
2021/12/15 13:22:16;;;;;;;29.65;16.75;;;7.90;99.90;;;;;;2609557;54;20026;31
2021/12/15 13:30:39;;;;;;;25.05;16.70;;;7.90;99.90;;;;;;2586881;54;19935;31
2021/12/15 13:33:23;;;;;;;23.40;15.20;;;7.90;99.90;;;;;;2618760;46;20065;31
2021/12/15 13:35:59;;;;;;;25.15;14.50;;;7.90;99.90;;;;;;2606257;39;20830;31
2021/12/15 13:38:40;;;;;;;23.20;14.75;;;7.90;99.90;;;;;;2589303;54;20055;31
2021/12/15 13:41:25;;;;;;;23.50;15.38;;;7.90;99.90;;;;;;2603835;54;20043;31
2021/12/15 13:44:06;;;;;;;25.87;16.03;;;7.90;99.90;;;;;;2586732;54;20823;31
2021/12/15 13:46:45;;;;;;;23.98;16.58;;;7.90;99.90;;;;;;2591682;54;20054;31
2021/12/15 13:49:42;;;;;;;21.75;13.88;;;7.90;99.90;;;;;;2592444;54;20354;-80
2021/12/15 13:52:30;;;;;;;23.50;14.20;;;7.90;99.90;;;;;;2605323;54;20828;31
2021/12/15 13:55:23;;;;;;;26.73;16.53;;;8.00;99.90;;;;;;2595830;54;20053;31
2021/12/15 13:57:58;;;;;;;24.05;15.70;;;7.90;99.90;;;;;;2602506;54;20039;31
2021/12/15 14:00:32;;;;;;;28.27;16.45;;;7.90;99.90;;;;;;2598917;54;20022;31
2021/12/15 14:03:17;;;;;;;28.17;16.38;;;7.90;99.90;;;;;;2613293;54;20030;-75
2021/12/15 14:05:55;;;;;;;25.40;16.25;;;7.90;99.90;;;;;;2612492;54;20029;-79
2021/12/15 14:08:33;;;;;;;22.92;15.63;;;7.90;99.90;;;;;;2614048;54;20078;31
2021/12/15 14:11:20;;;;;;;25.10;15.77;;;7.90;99.90;;;;;;2608840;54;20019;31
2021/12/15 14:13:58;;;;;;;22.90;14.93;;;7.90;99.90;;;;;;2587000;54;20325;31
2021/12/15 14:16:52;;;;;;;23.67;15.77;;;7.90;99.90;;;;;;2598186;54;20770;31
2021/12/15 14:19:24;;;;;;;23.15;15.30;;;7.90;99.90;;;;;;2586555;54;20157;31
2021/12/15 14:22:06;;;;;;;27.83;17.70;;;7.90;99.90;;;;;;2587037;46;20117;31
2021/12/15 14:24:37;;;;;;;23.95;15.75;;;7.90;99.90;;;;;;2586019;54;21083;31
2021/12/15 14:27:10;;;;;;;33.90;18.63;;;7.90;99.90;;;;;;2604295;54;20047;31
2021/12/15 14:29:44;;;;;;;27.70;16.83;;;7.90;99.90;;;;;;2604672;54;20251;31
2021/12/15 14:32:21;;;;;;;28.63;17.52;;;7.90;99.90;;;;;;2596308;46;20026;31
2021/12/15 14:34:55;;;;;;;23.45;15.10;;;7.90;99.90;;;;;;2606428;54;20082;31
2021/12/15 14:37:31;;;;;;;26.42;16.58;;;7.80;99.90;;;;;;2598502;54;20516;31
2021/12/15 14:40:09;;;;;;;22.52;15.18;;;7.90;99.90;;;;;;2610912;54;20025;31
2021/12/15 14:42:45;;;;;;;22.63;15.10;;;7.80;99.90;;;;;;2598815;54;20928;31
2021/12/15 14:45:18;;;;;;;24.35;16.30;;;7.70;99.90;;;;;;2589067;54;20029;31
2021/12/15 14:47:50;;;;;;;23.63;15.73;;;7.80;99.90;;;;;;2590841;39;20340;31
2021/12/15 14:50:26;;;;;;;22.77;15.75;;;7.70;99.90;;;;;;2599092;54;21245;31
2021/12/15 14:53:03;;;;;;;30.63;17.25;;;7.70;99.90;;;;;;2606699;54;20037;31
2021/12/15 14:55:35;;;;;;;25.08;16.38;;;7.70;99.90;;;;;;2586744;54;20791;31
2021/12/15 14:58:20;;;;;;;27.27;16.92;;;7.70;99.90;;;;;;2609420;46;20876;-75
2021/12/15 15:00:51;;;;;;;27.00;17.63;;;7.70;99.90;;;;;;2586647;54;20029;31
2021/12/15 15:03:26;;;;;;;25.63;15.52;;;7.70;99.90;;;;;;2590171;54;20808;31
2021/12/15 15:05:58;;;;;;;27.88;17.17;;;7.70;99.90;;;;;;2586010;54;20049;31
2021/12/15 15:08:37;;;;;;;25.00;16.92;;;7.70;99.90;;;;;;2606348;54;20010;31
2021/12/15 15:11:30;;;;;;;27.13;17.23;;;7.70;99.90;;;;;;2586000;54;20957;31
2021/12/15 15:14:06;;;;;;;28.85;17.98;;;7.60;99.90;;;;;;2595715;46;20929;31
2021/12/15 15:16:37;;;;;;;26.80;17.40;;;7.60;99.90;;;;;;2586533;54;20901;31
2021/12/15 15:19:17;;;;;;;29.33;17.27;;;7.60;99.90;;;;;;2585823;54;20085;31
2021/12/15 15:21:48;;;;;;;28.83;18.85;;;7.60;99.90;;;;;;2585762;54;20930;31
2021/12/15 15:24:33;;;;;;;29.47;17.27;;;7.60;99.90;;;;;;2754719;31;20525;31
2021/12/15 15:27:09;;;;;;;25.15;17.13;;;7.60;99.90;;;;;;2585864;54;20851;31
2021/12/15 15:29:45;;;;;;;25.92;16.77;;;7.60;99.90;;;;;;2594038;46;20022;31
2021/12/15 15:32:21;;;;;;;23.85;16.77;;;7.60;99.90;;;;;;2599089;54;20965;31
2021/12/15 15:34:52;;;;;;;;;;;7.60;99.90;;;;;;2596527;54;21260;31
2021/12/15 15:37:26;;;;;;;23.90;15.83;;;7.60;99.90;;;;;;2592289;46;19923;31
2021/12/15 15:40:24;;;;;;;26.48;17.83;;;7.60;99.90;;;;;;2613204;39;21057;31
2021/12/15 15:43:00;;;;;;;29.70;19.60;;;7.60;99.90;;;;;;2586194;54;20018;31
2021/12/15 15:45:35;;;;;;;29.70;19.57;;;7.60;99.90;;;;;;2586615;54;20042;31
2021/12/15 15:48:09;;;;;;;28.88;17.13;;;7.60;99.90;;;;;;2585259;54;20976;31
2021/12/15 15:50:42;;;;;;;25.70;17.80;;;7.60;99.90;;;;;;2585221;54;20837;31
2021/12/15 15:53:14;;;;;;;26.40;19.00;;;7.60;99.90;;;;;;2585639;54;20892;31
2021/12/15 15:55:54;;;;;;;24.98;17.88;;;7.50;99.90;;;;;;2604495;46;20023;31
2021/12/15 15:58:26;;;;;;;26.40;16.90;;;7.50;99.90;;;;;;2585891;54;19961;31
2021/12/15 16:01:03;;;;;;;25.30;15.55;;;7.50;99.90;;;;;;2590786;47;20119;31
2021/12/15 16:03:48;;;;;;;27.50;17.03;;;7.50;99.90;;;;;;2584826;54;20992;31
2021/12/15 16:06:26;;;;;;;29.30;18.92;;;7.50;99.90;;;;;;2586014;54;20048;31
2021/12/15 16:09:01;;;;;;;31.75;20.75;;;7.50;99.90;;;;;;2585475;54;20778;31
2021/12/15 16:11:54;;;;;;;28.90;19.10;;;7.50;99.90;;;;;;2584780;54;20031;31
2021/12/15 16:14:27;;;;;;;27.35;17.60;;;7.50;99.90;;;;;;2585924;54;20865;31
2021/12/15 16:17:07;;;;;;;29.05;19.15;;;7.40;99.90;;;;;;2585905;54;20049;31
2021/12/15 16:19:55;;;;;;;28.65;18.10;;;7.40;99.90;;;;;;2585910;54;20853;31
2021/12/15 16:25:41;;;;;;;26.90;18.03;;;7.50;99.90;;;;;;2585536;54;19946;31
2021/12/15 16:28:18;;;;;;;26.33;17.92;;;7.50;99.90;;;;;;2585629;54;20961;31
2021/12/15 16:30:52;;;;;;;29.05;19.25;;;7.50;99.90;;;;;;2585927;54;20881;31
2021/12/15 16:33:28;;;;;;;33.97;22.48;;;7.50;99.90;;;;;;2586071;54;20022;31
2021/12/15 16:36:06;;;;;;;37.67;25.20;;;7.50;99.90;;;;;;2588805;54;20029;31
2021/12/15 16:38:45;;;;;;;38.67;27.85;;;7.40;99.90;;;;;;2585713;54;20093;31
2021/12/15 16:41:20;;;;;;;37.80;25.20;;;7.40;99.90;;;;;;2585571;54;20022;31
2021/12/15 16:44:01;;;;;;;35.95;24.45;;;7.50;99.90;;;;;;2585693;54;20999;31
2021/12/15 16:46:37;;;;;;;35.30;25.15;;;7.50;99.90;;;;;;2585528;54;20821;31
2021/12/15 16:49:10;;;;;;;34.70;23.90;;;7.50;99.90;;;;;;2585564;54;20029;31
2021/12/15 16:51:54;;;;;;;31.38;21.65;;;7.50;99.90;;;;;;2587435;54;21328;31
2021/12/15 16:54:28;;;;;;;30.20;21.25;;;7.50;99.90;;;;;;2600912;54;21030;31
2021/12/15 17:00:17;;;;;;;28.73;20.48;;;7.50;99.90;;;;;;2605358;54;20891;31
2021/12/15 17:02:57;;;;;;;28.43;19.77;;;7.50;99.90;;;;;;2587682;54;21003;-80
2021/12/15 17:05:30;;;;;;;28.47;18.60;;;7.50;99.90;;;;;;2590182;54;20050;31
2021/12/15 17:08:08;;;;;;;30.93;20.50;;;7.50;99.90;;;;;;2593083;47;20889;31
2021/12/15 17:10:45;;;;;;;28.55;18.98;;;7.50;99.90;;;;;;2604722;46;20025;-76
2021/12/15 17:13:19;;;;;;;28.15;17.73;;;7.50;99.90;;;;;;2626978;39;20386;31
2021/12/15 17:15:58;;;;;;;27.47;19.17;;;7.50;99.90;;;;;;2592988;54;20046;31
2021/12/15 17:18:36;;;;;;;25.67;18.67;;;7.50;99.90;;;;;;2633148;39;20484;31
2021/12/15 17:21:27;;;;;;;27.63;19.92;;;7.50;99.90;;;;;;2610401;54;20033;31
2021/12/15 17:24:00;;;;;;;27.98;20.95;;;7.50;99.90;;;;;;2586271;54;20897;31
2021/12/15 17:26:35;;;;;;;29.85;19.70;;;7.50;99.90;;;;;;2586691;54;20141;31
2021/12/15 17:29:14;;;;;;;29.30;20.42;;;7.60;99.90;;;;;;2587178;54;20054;31
2021/12/15 17:31:53;;;;;;;29.10;20.65;;;7.60;99.90;;;;;;2586646;54;20744;31
2021/12/15 17:34:31;;;;;;;33.08;21.23;;;7.60;99.90;;;;;;2607551;54;19963;31
2021/12/15 17:37:12;;;;;;;26.90;19.45;;;7.50;99.90;;;;;;2597123;54;19970;31
2021/12/15 17:39:47;;;;;;;24.52;18.15;;;7.50;99.90;;;;;;2589732;54;20073;31
2021/12/15 17:42:23;;;;;;;27.90;18.83;;;7.60;99.90;;;;;;2605780;54;20030;31
2021/12/15 17:47:47;;;;;;;27.58;18.38;;;7.60;99.90;;;;;;2589272;54;21202;31
2021/12/15 17:50:24;;;;;;;28.83;18.38;;;7.60;99.90;;;;;;2590831;54;22081;31
2021/12/15 17:53:00;;;;;;;25.20;17.27;;;7.60;99.90;;;;;;2586734;54;20019;31
2021/12/15 17:55:35;;;;;;;27.85;18.98;;;7.60;99.90;;;;;;2586350;54;20023;31
2021/12/15 17:58:11;;;;;;;28.33;18.87;;;7.60;99.90;;;;;;2586654;54;19956;31
2021/12/15 18:00:46;;;;;;;26.90;17.90;;;7.60;99.90;;;;;;2586836;46;21123;31
2021/12/15 18:03:23;;;;;;;30.90;19.50;;;7.60;99.90;;;;;;2586521;54;20873;31
2021/12/15 18:05:56;;;;;;;26.95;18.90;;;7.60;99.90;;;;;;2586047;54;20866;31
2021/12/15 18:08:27;;;;;;;25.75;18.40;;;7.60;99.90;;;;;;2585273;54;20084;31
2021/12/15 18:11:06;;;;;;;24.40;17.05;;;7.60;99.90;;;;;;2586189;54;20996;31